createdAt,value
2023-09-06T00:03:52.073Z,3.08
2023-09-06T00:08:54.602Z,2.88
2023-09-06T00:13:56.799Z,2.92
2023-09-06T00:19:01.244Z,2.88
2023-09-06T00:24:04.504Z,3.47
2023-09-06T00:29:09.536Z,2.90
2023-09-06T00:34:11.684Z,3.42
2023-09-06T00:39:15.176Z,2.97
2023-09-06T00:44:19.966Z,3.17
2023-09-06T00:49:22.399Z,3.20
2023-09-06T00:54:24.538Z,3.35
2023-09-06T00:59:27.959Z,3.15
2023-09-06T01:04:30.135Z,3.15
2023-09-06T01:09:32.410Z,3.40
2023-09-06T01:14:37.804Z,4.13
2023-09-06T01:19:46.135Z,3.47
2023-09-06T01:24:49.037Z,3.55
2023-09-06T01:29:51.375Z,3.42
2023-09-06T01:34:55.636Z,3.60
2023-09-06T01:39:57.894Z,3.80
2023-09-06T01:45:00.132Z,3.30
2023-09-06T01:50:03.403Z,3.55
2023-09-06T01:55:06.340Z,3.50
2023-09-06T02:00:26.221Z,3.60
2023-09-06T02:05:31.233Z,4.05
2023-09-06T02:10:33.436Z,3.50
2023-09-06T02:15:35.666Z,3.80
2023-09-06T02:20:40.200Z,4.07
2023-09-06T02:25:46.363Z,3.65
2023-09-06T02:30:48.667Z,3.50
2023-09-06T02:35:51.057Z,4.05
2023-09-06T02:40:53.390Z,3.58
2023-09-06T02:45:56.042Z,3.85
2023-09-06T02:51:01.004Z,3.88
2023-09-06T02:56:03.635Z,3.83
2023-09-06T03:01:07.496Z,3.65
2023-09-06T03:06:18.948Z,4.18
2023-09-06T03:11:21.720Z,3.40
2023-09-06T03:16:24.631Z,3.78
2023-09-06T03:21:29.993Z,3.55
2023-09-06T03:26:32.210Z,3.60
2023-09-06T03:31:42.408Z,4.00
2023-09-06T03:36:47.289Z,3.75
2023-09-06T03:41:49.728Z,3.67
2023-09-06T03:46:52.894Z,3.10
2023-09-06T03:51:55.330Z,3.95
2023-09-06T03:56:58.812Z,3.60
2023-09-06T04:02:01.539Z,3.90
2023-09-06T04:07:04.385Z,3.75
2023-09-06T04:12:07.130Z,3.78
2023-09-06T04:17:10.608Z,3.70
2023-09-06T04:22:14.145Z,3.90
2023-09-06T04:27:17.348Z,3.72
2023-09-06T04:32:21.149Z,4.35
2023-09-06T04:37:24.510Z,3.72
2023-09-06T04:42:28.727Z,3.92
2023-09-06T04:47:31.844Z,4.18
2023-09-06T04:52:39.208Z,3.90
2023-09-06T04:57:42.759Z,4.20
2023-09-06T05:02:46.826Z,3.80
2023-09-06T05:07:48.996Z,3.72
2023-09-06T05:12:51.215Z,4.55
2023-09-06T05:17:54.231Z,4.30
2023-09-06T05:22:57.945Z,4.50
2023-09-06T05:28:02.988Z,4.75
2023-09-06T05:33:05.675Z,5.13
2023-09-06T05:38:10.684Z,5.15
2023-09-06T05:43:14.956Z,5.60
2023-09-06T05:48:18.108Z,5.82
2023-09-06T05:53:20.555Z,5.78
2023-09-06T05:58:24.905Z,6.60
2023-09-06T06:03:27.253Z,6.30
2023-09-06T06:08:29.843Z,6.38
2023-09-06T06:13:32.307Z,7.63
2023-09-06T06:18:34.481Z,7.38
2023-09-06T06:23:36.616Z,6.57
2023-09-06T06:28:38.999Z,6.15
2023-09-06T06:33:41.511Z,5.78
2023-09-06T06:38:47.331Z,5.38
2023-09-06T06:43:53.413Z,4.85
2023-09-06T06:48:56.180Z,5.15
2023-09-06T06:53:58.824Z,4.65
2023-09-06T06:59:01.269Z,4.43
2023-09-06T07:04:06.589Z,4.60
2023-09-06T07:09:09.099Z,4.63
2023-09-06T07:14:11.291Z,4.25
2023-09-06T07:19:13.779Z,3.80
2023-09-06T07:24:16.064Z,4.13
2023-09-06T07:29:19.878Z,3.80
2023-09-06T07:34:22.208Z,4.05
2023-09-06T07:39:24.555Z,3.55
2023-09-06T07:44:30.646Z,4.05
2023-09-06T07:49:32.843Z,4.00
2023-09-06T07:54:35.714Z,3.60
2023-09-06T07:59:37.900Z,3.75
2023-09-06T08:04:40.250Z,3.75
2023-09-06T08:09:42.657Z,3.65
2023-09-06T08:14:45.026Z,4.13
2023-09-06T08:19:47.424Z,3.60
2023-09-06T08:24:49.568Z,4.30
2023-09-06T08:29:51.725Z,3.45
2023-09-06T08:34:53.945Z,3.72
2023-09-06T08:39:56.127Z,4.10
2023-09-06T08:44:58.428Z,3.65
2023-09-06T08:50:00.882Z,3.38
2023-09-06T08:55:04.362Z,3.08
2023-09-06T09:00:10.400Z,3.40
2023-09-06T09:05:21.058Z,3.40
2023-09-06T09:10:27.433Z,3.20
2023-09-06T09:15:34.326Z,3.10
2023-09-06T09:20:39.291Z,2.90
2023-09-06T09:25:49.724Z,2.65
2023-09-06T09:30:52.661Z,2.88
2023-09-06T09:35:55.001Z,2.95
2023-09-06T09:41:08.108Z,2.58
2023-09-06T09:46:11.078Z,2.55
2023-09-06T09:51:17.558Z,2.33
2023-09-06T09:56:29.505Z,2.40
2023-09-06T10:01:32.831Z,2.55
2023-09-06T10:06:35.980Z,2.17
2023-09-06T10:11:38.802Z,2.72
2023-09-06T10:16:41.772Z,2.67
2023-09-06T10:21:45.920Z,2.55
2023-09-06T10:26:49.008Z,1.98
2023-09-06T10:31:52.956Z,2.28
2023-09-06T10:36:58.223Z,2.40
2023-09-06T10:42:12.621Z,2.22
2023-09-06T10:47:36.904Z,2.67
2023-09-06T10:52:42.999Z,2.20
2023-09-06T10:57:56.126Z,2.40
2023-09-06T11:03:07.607Z,2.17
2023-09-06T11:08:22.496Z,2.20
2023-09-06T11:13:30.335Z,2.30
2023-09-06T11:18:49.731Z,2.38
2023-09-06T11:23:53.892Z,2.80
2023-09-06T11:29:05.411Z,2.05
2023-09-06T11:34:10.353Z,2.13
2023-09-06T11:39:19.600Z,2.67
2023-09-06T11:44:24.461Z,2.83
2023-09-06T11:49:27.215Z,1.80
2023-09-06T11:54:32.927Z,1.60
2023-09-06T11:59:35.251Z,1.40
2023-09-06T12:04:37.333Z,1.70
2023-09-06T12:09:39.686Z,1.83
2023-09-06T12:14:44.194Z,1.88
2023-09-06T12:19:47.259Z,1.70
2023-09-06T12:24:52.267Z,1.92
2023-09-06T12:29:54.715Z,1.92
2023-09-06T12:34:56.920Z,1.85
2023-09-06T12:39:59.079Z,1.90
2023-09-06T12:45:02.729Z,2.40
2023-09-06T12:50:07.020Z,2.40
2023-09-06T12:55:09.575Z,3.03
2023-09-06T13:00:12.353Z,1.90
2023-09-06T13:05:21.047Z,2.45
2023-09-06T13:10:23.784Z,1.87
2023-09-06T13:15:26.061Z,2.05
2023-09-06T13:20:28.289Z,1.90
2023-09-06T13:25:30.451Z,2.42
2023-09-06T13:30:32.714Z,2.05
2023-09-06T13:35:35.008Z,1.95
2023-09-06T13:40:37.222Z,1.92
2023-09-06T13:45:39.364Z,2.08
2023-09-06T13:50:41.567Z,2.10
2023-09-06T13:55:43.714Z,2.40
2023-09-06T14:00:45.802Z,2.70
2023-09-06T14:05:47.890Z,2.00
2023-09-06T14:10:54.505Z,1.88
2023-09-06T14:15:56.878Z,1.90
2023-09-06T14:20:59.088Z,2.10
2023-09-06T14:26:01.267Z,1.80
2023-09-06T14:31:03.657Z,1.77
2023-09-06T14:36:06.306Z,1.95
2023-09-06T14:41:08.702Z,1.98
2023-09-06T14:46:10.817Z,2.28
2023-09-06T14:51:13.053Z,1.77
2023-09-06T14:56:16.440Z,2.40
2023-09-06T15:01:18.771Z,2.13
2023-09-06T15:06:21.186Z,2.05
2023-09-06T15:11:24.189Z,1.70
2023-09-06T15:16:26.404Z,2.25
2023-09-06T15:21:28.569Z,1.70
2023-09-06T15:26:30.641Z,1.67
2023-09-06T15:31:32.843Z,1.90
2023-09-06T15:36:35.186Z,1.90
2023-09-06T15:41:37.256Z,2.10
2023-09-06T15:46:39.645Z,2.10
2023-09-06T15:51:42.098Z,3.42
2023-09-06T15:56:44.409Z,6.53
2023-09-06T16:01:47.437Z,2.33
2023-09-06T16:06:49.674Z,2.42
2023-09-06T16:11:57.401Z,3.15
2023-09-06T16:16:59.577Z,2.35
2023-09-06T16:22:01.807Z,2.67
2023-09-06T16:27:04.765Z,7.57
2023-09-06T16:32:07.750Z,4.90
2023-09-06T16:37:09.907Z,2.58
2023-09-06T16:42:12.802Z,2.70
2023-09-06T16:47:15.017Z,2.97
2023-09-06T16:52:17.196Z,3.22
2023-09-06T16:57:19.383Z,2.83
2023-09-06T17:02:21.707Z,2.90
2023-09-06T17:07:24.008Z,2.92
2023-09-06T17:12:26.263Z,2.53
2023-09-06T17:17:28.550Z,2.67
2023-09-06T17:22:31.860Z,2.78
2023-09-06T17:27:34.196Z,2.88
2023-09-06T17:33:02.776Z,3.00
2023-09-06T17:38:12.895Z,3.25
2023-09-06T17:43:15.899Z,2.88
2023-09-06T17:48:19.596Z,2.83
2023-09-06T17:53:26.546Z,3.22
2023-09-06T17:58:30.092Z,3.28
2023-09-06T18:03:33.796Z,3.08
2023-09-06T18:08:40.685Z,2.97
2023-09-06T18:13:43.018Z,3.53
2023-09-06T18:18:46.081Z,3.67
2023-09-06T18:23:49.395Z,3.45
2023-09-06T18:28:51.678Z,3.50
2023-09-06T18:33:53.813Z,3.72
2023-09-06T18:38:56.974Z,4.07
2023-09-06T18:43:59.127Z,7.60
2023-09-06T18:49:05.806Z,9.65
2023-09-06T18:54:07.928Z,6.70
2023-09-06T18:59:10.256Z,8.75
2023-09-06T19:04:13.968Z,9.27
2023-09-06T19:09:16.836Z,4.90
2023-09-06T19:14:20.143Z,3.72
2023-09-06T19:19:23.710Z,4.28
2023-09-06T19:24:25.923Z,4.20
2023-09-06T19:29:29.061Z,4.57
2023-09-06T19:34:31.280Z,4.20
2023-09-06T19:39:34.023Z,4.43
2023-09-06T19:44:36.379Z,4.65
2023-09-06T19:49:38.754Z,4.70
2023-09-06T19:54:41.138Z,5.55
2023-09-06T19:59:43.454Z,5.97
2023-09-06T20:04:45.716Z,5.05
2023-09-06T20:09:48.309Z,5.47
2023-09-06T20:14:50.408Z,5.05
2023-09-06T20:19:54.783Z,5.07
2023-09-06T20:24:57.116Z,8.05
2023-09-06T20:29:59.312Z,11.52
2023-09-06T20:35:01.522Z,10.85
2023-09-06T20:40:04.620Z,14.50
2023-09-06T20:45:07.357Z,9.85
2023-09-06T20:50:14.043Z,7.65
2023-09-06T20:55:16.505Z,7.32
2023-09-06T21:00:18.647Z,5.47
2023-09-06T21:05:20.801Z,5.63
2023-09-06T21:10:22.943Z,5.90
2023-09-06T21:15:25.294Z,6.22
2023-09-06T21:20:30.838Z,5.32
2023-09-06T21:25:33.115Z,5.38
2023-09-06T21:30:35.322Z,6.10
2023-09-06T21:35:42.842Z,6.72
2023-09-06T21:40:46.222Z,5.78
2023-09-06T21:45:50.375Z,6.28
2023-09-06T21:51:07.468Z,6.60
2023-09-06T21:56:10.079Z,6.32
2023-09-06T22:01:12.879Z,6.63
2023-09-06T22:11:54.834Z,6.50
2023-09-06T22:16:58.215Z,6.65
2023-09-06T22:22:00.611Z,7.07
2023-09-06T22:27:03.037Z,7.25
2023-09-06T22:32:06.252Z,6.72
2023-09-06T22:37:09.105Z,6.78
2023-09-06T22:42:12.290Z,6.75
2023-09-06T22:47:14.556Z,6.95
2023-09-06T22:52:17.031Z,6.78
2023-09-06T22:57:19.324Z,7.25
2023-09-06T23:02:21.586Z,7.28
2023-09-06T23:07:23.860Z,7.53
2023-09-06T23:12:28.216Z,7.35
2023-09-06T23:17:37.687Z,7.32
2023-09-06T23:22:45.165Z,7.78
2023-09-06T23:27:47.945Z,8.13
2023-09-06T23:32:57.879Z,7.78
2023-09-06T23:38:07.214Z,7.50
2023-09-06T23:43:10.584Z,8.15
2023-09-06T23:48:12.818Z,7.63
2023-09-06T23:53:15.111Z,8.15
2023-09-06T23:58:17.296Z,8.73
